Time;durP1;ratioP1;P1;durP2;ratioP2;P2;SDS_P1;SDS_P2;PMS_P1;PMS_P2;Temp;Humidity;BMP_temperature;BMP_pressure;BME280_temperature;BME280_humidity;BME280_pressure;Samples;Min_cycle;Max_cycle;Signal;HPM_P1;HPM_P2
2021/04/18 00:01:42;;;;;;;18.65;7.68;;;6.50;99.90;;;;;;4990994;28;20100;-62
2021/04/18 00:04:07;;;;;;;27.85;7.60;;;6.50;99.90;;;;;;4975872;28;20548;-63
2021/04/18 00:06:35;;;;;;;19.65;7.50;;;6.50;99.90;;;;;;4982020;28;20464;-64
2021/04/18 00:09:01;;;;;;;16.23;7.00;;;6.60;99.90;;;;;;4978901;28;20484;-62
2021/04/18 00:11:26;;;;;;;17.98;7.07;;;6.50;99.90;;;;;;4982185;28;20029;-62
2021/04/18 00:13:52;;;;;;;17.33;6.60;;;6.50;99.90;;;;;;4986666;28;20536;-61
2021/04/18 00:16:18;;;;;;;18.95;6.78;;;6.40;99.90;;;;;;4981067;28;20491;-62
2021/04/18 00:18:44;;;;;;;16.95;7.30;;;6.30;99.90;;;;;;4991207;28;20049;-63
2021/04/18 00:21:09;;;;;;;14.77;6.85;;;6.40;99.90;;;;;;4991297;28;20374;-61
2021/04/18 00:23:37;;;;;;;19.95;7.05;;;6.40;99.90;;;;;;4981334;28;20037;-62
2021/04/18 00:26:05;;;;;;;18.23;7.00;;;6.20;99.90;;;;;;4980034;28;20023;-63
2021/04/18 00:28:31;;;;;;;16.70;7.20;;;6.20;99.90;;;;;;4978426;28;20026;-63
2021/04/18 00:30:57;;;;;;;18.00;7.15;;;6.20;99.90;;;;;;4982119;28;20556;-63
2021/04/18 00:33:23;;;;;;;18.00;7.07;;;6.20;99.90;;;;;;4996105;23;20137;-63
2021/04/18 00:35:49;;;;;;;16.70;6.82;;;6.20;99.90;;;;;;4999556;28;20053;-62
2021/04/18 00:38:14;;;;;;;18.02;7.30;;;6.10;99.90;;;;;;5008043;28;20026;-65
2021/04/18 00:40:40;;;;;;;15.75;6.75;;;6.20;99.90;;;;;;4992627;28;20048;-64
2021/04/18 00:43:06;;;;;;;16.85;6.38;;;6.10;99.90;;;;;;4992858;28;20037;-63
2021/04/18 00:45:32;;;;;;;19.92;7.55;;;6.10;99.90;;;;;;4988438;28;20034;-63
2021/04/18 00:48:00;;;;;;;18.00;7.10;;;6.00;99.90;;;;;;4987872;28;20484;-62
2021/04/18 00:50:31;;;;;;;19.17;7.53;;;6.00;99.90;;;;;;4992601;28;20049;-61
2021/04/18 00:52:57;;;;;;;17.05;7.15;;;6.00;99.90;;;;;;4992896;28;20675;-63
2021/04/18 00:55:27;;;;;;;18.40;7.60;;;5.90;99.90;;;;;;4992860;28;20026;-64
2021/04/18 00:57:55;;;;;;;16.52;7.18;;;5.80;99.90;;;;;;4980227;28;20023;-63
2021/04/18 01:00:21;;;;;;;19.65;6.82;;;5.80;99.90;;;;;;4983315;28;20023;-64
2021/04/18 01:02:47;;;;;;;18.95;6.60;;;5.80;99.90;;;;;;4985348;28;20028;-66
2021/04/18 01:05:13;;;;;;;18.25;6.63;;;5.80;99.90;;;;;;4989485;28;20579;-64
2021/04/18 01:07:39;;;;;;;17.20;6.68;;;5.70;99.90;;;;;;4994399;28;20019;-63
2021/04/18 01:10:10;;;;;;;16.45;6.50;;;5.70;99.90;;;;;;4997540;28;20480;-64
2021/04/18 01:12:36;;;;;;;17.55;6.35;;;5.70;99.90;;;;;;4995008;28;20026;-64
2021/04/18 01:15:02;;;;;;;20.08;6.55;;;5.60;99.90;;;;;;4989166;28;20034;-63
2021/04/18 01:17:28;;;;;;;18.90;6.80;;;5.50;99.90;;;;;;4997839;28;20068;-63
2021/04/18 01:19:54;;;;;;;18.80;6.55;;;5.50;99.90;;;;;;4997100;28;20026;-65
2021/04/18 01:22:20;;;;;;;18.25;6.95;;;5.30;99.90;;;;;;4996512;28;20412;-61
2021/04/18 01:24:45;;;;;;;16.52;6.88;;;5.30;99.90;;;;;;4995077;28;20026;-60
2021/04/18 01:27:11;;;;;;;18.00;7.57;;;5.50;99.90;;;;;;4984959;28;20035;-63
2021/04/18 01:29:37;;;;;;;17.60;6.43;;;5.60;99.90;;;;;;4986388;28;20365;-64
2021/04/18 01:32:04;;;;;;;18.77;6.75;;;5.60;99.90;;;;;;4986126;28;20037;-63
2021/04/18 01:34:31;;;;;;;17.77;7.07;;;5.50;99.90;;;;;;4995471;28;20117;-62
2021/04/18 01:36:57;;;;;;;16.83;6.65;;;5.60;99.90;;;;;;4995007;28;20026;-65
2021/04/18 01:39:23;;;;;;;18.35;6.70;;;5.50;99.90;;;;;;4995812;28;20034;-64
2021/04/18 01:41:49;;;;;;;18.35;6.00;;;5.40;99.90;;;;;;4995996;28;20432;-61
2021/04/18 01:44:15;;;;;;;18.92;6.18;;;5.40;99.90;;;;;;4996495;28;20030;-62
2021/04/18 01:46:43;;;;;;;17.23;5.95;;;5.30;99.90;;;;;;4994630;28;20476;-62
2021/04/18 01:49:09;;;;;;;19.45;6.20;;;5.40;99.90;;;;;;4995652;28;20033;-62
2021/04/18 01:51:35;;;;;;;17.98;5.75;;;5.50;99.90;;;;;;4985811;28;20027;-63
2021/04/18 01:54:01;;;;;;;17.50;6.45;;;5.40;99.90;;;;;;4991030;28;20022;-61
2021/04/18 01:56:27;;;;;;;21.00;6.82;;;5.50;99.90;;;;;;4994312;28;20027;-63
2021/04/18 01:58:53;;;;;;;17.83;6.20;;;5.50;99.90;;;;;;4995276;28;20541;-64
2021/04/18 02:01:19;;;;;;;18.48;6.72;;;5.60;99.90;;;;;;4994008;28;20058;-62
2021/04/18 02:03:45;;;;;;;18.33;6.20;;;5.60;99.90;;;;;;4995374;28;20072;-63
2021/04/18 02:06:11;;;;;;;18.83;7.22;;;5.70;99.90;;;;;;4995287;28;20094;-63
2021/04/18 02:08:37;;;;;;;18.17;6.65;;;5.80;99.90;;;;;;4995177;28;20060;-57
2021/04/18 02:11:03;;;;;;;20.98;7.47;;;5.90;99.90;;;;;;4994161;28;20113;-63
2021/04/18 02:13:31;;;;;;;16.25;6.25;;;6.00;99.90;;;;;;4993818;28;20117;-64
2021/04/18 02:15:57;;;;;;;17.00;6.38;;;6.00;99.90;;;;;;4995091;28;20026;-64
2021/04/18 02:18:22;;;;;;;20.48;6.50;;;6.00;99.90;;;;;;4994096;28;20112;-65
2021/04/18 02:20:48;;;;;;;18.48;6.65;;;6.20;99.90;;;;;;4993836;28;20078;-63
2021/04/18 02:23:14;;;;;;;19.05;6.70;;;6.20;99.90;;;;;;4994050;28;20198;-63
2021/04/18 02:25:39;;;;;;;17.42;6.82;;;6.30;99.90;;;;;;4995106;28;20026;-64
2021/04/18 02:28:05;;;;;;;16.98;7.93;;;6.40;99.90;;;;;;4993730;28;20113;-62
2021/04/18 02:30:31;;;;;;;19.55;6.95;;;6.30;99.90;;;;;;4994639;28;20484;-63
2021/04/18 02:32:57;;;;;;;23.23;7.50;;;6.40;99.90;;;;;;4995173;28;20026;-63
2021/04/18 02:35:23;;;;;;;21.77;7.70;;;6.50;99.90;;;;;;4995072;28;20053;-64
2021/04/18 02:37:48;;;;;;;24.15;10.00;;;6.50;99.90;;;;;;4993697;28;20057;-63
2021/04/18 02:40:14;;;;;;;20.63;7.50;;;6.60;99.90;;;;;;4993228;28;20038;-63
2021/04/18 02:42:40;;;;;;;20.60;7.25;;;6.70;99.90;;;;;;4993247;28;20022;-63
2021/04/18 02:45:08;;;;;;;20.13;7.68;;;6.60;99.90;;;;;;4994591;28;20040;-63
2021/04/18 02:47:33;;;;;;;17.85;7.70;;;6.70;99.90;;;;;;4994692;28;20559;-63
2021/04/18 02:49:59;;;;;;;23.08;8.25;;;6.60;99.90;;;;;;4994453;28;20105;-64
2021/04/18 02:52:25;;;;;;;18.63;6.82;;;6.60;99.90;;;;;;4993031;28;20093;-60
2021/04/18 02:54:51;;;;;;;19.50;7.35;;;6.70;99.90;;;;;;4994661;28;20026;-62
2021/04/18 02:57:17;;;;;;;20.50;8.15;;;6.60;99.90;;;;;;4994316;28;20137;-62
2021/04/18 02:59:43;;;;;;;21.52;7.63;;;6.70;99.90;;;;;;4993005;28;20065;-63
2021/04/18 03:02:08;;;;;;;21.13;7.60;;;6.70;99.90;;;;;;4994453;28;20027;-62
2021/04/18 03:04:34;;;;;;;20.55;8.23;;;6.70;99.90;;;;;;4994109;28;20469;-64
2021/04/18 03:07:00;;;;;;;20.13;7.53;;;6.80;99.90;;;;;;4992892;28;20042;-63
2021/04/18 03:09:25;;;;;;;22.52;8.35;;;6.80;99.90;;;;;;4992849;28;20472;-62
2021/04/18 03:11:51;;;;;;;17.00;7.05;;;6.90;99.90;;;;;;4994756;28;20022;-63
2021/04/18 03:14:17;;;;;;;21.50;8.30;;;6.80;99.90;;;;;;4994148;28;20062;-64
2021/04/18 03:16:43;;;;;;;18.70;8.02;;;6.80;99.90;;;;;;4993017;28;20026;-62
2021/04/18 03:19:08;;;;;;;20.55;8.43;;;6.90;99.90;;;;;;4994408;28;20538;-63
2021/04/18 03:21:34;;;;;;;21.73;8.40;;;6.90;99.90;;;;;;4994569;28;20054;-62
2021/04/18 03:24:00;;;;;;;21.23;8.00;;;6.90;99.90;;;;;;4993391;28;20023;-64
2021/04/18 03:26:26;;;;;;;22.70;8.63;;;6.80;99.90;;;;;;4993726;28;20114;-64
2021/04/18 03:28:51;;;;;;;22.02;9.05;;;6.80;99.90;;;;;;4996477;28;20109;-62
2021/04/18 03:31:17;;;;;;;19.40;8.02;;;6.80;99.90;;;;;;4993954;28;20117;-63
2021/04/18 03:33:43;;;;;;;19.85;8.93;;;6.80;99.90;;;;;;4994088;28;20030;-63
2021/04/18 03:36:11;;;;;;;24.90;8.95;;;6.90;99.90;;;;;;4992771;28;20037;-63
2021/04/18 03:38:37;;;;;;;;;;;6.80;99.90;;;;;;4994151;28;20026;-61
2021/04/18 03:41:03;;;;;;;19.08;8.20;;;6.80;99.90;;;;;;4993852;28;20323;-62
2021/04/18 03:43:29;;;;;;;21.13;9.05;;;6.80;99.90;;;;;;4992203;28;20109;-63
2021/04/18 03:45:54;;;;;;;22.15;9.25;;;6.70;99.90;;;;;;4993493;28;20161;-64
2021/04/18 03:48:20;;;;;;;20.70;8.48;;;6.70;99.90;;;;;;4993738;28;20034;-63
2021/04/18 03:50:45;;;;;;;21.05;8.57;;;6.70;99.90;;;;;;4993297;28;20029;-65
2021/04/18 03:53:11;;;;;;;23.35;9.52;;;6.70;99.90;;;;;;4993382;28;20491;-64
2021/04/18 03:55:37;;;;;;;20.48;8.60;;;6.70;99.90;;;;;;4993252;28;20424;-63
2021/04/18 03:58:02;;;;;;;21.35;8.93;;;6.70;99.90;;;;;;4992003;28;20019;-64
2021/04/18 04:00:28;;;;;;;20.45;8.55;;;6.60;99.90;;;;;;4991807;28;20077;-64
2021/04/18 04:02:53;;;;;;;22.65;9.57;;;6.50;99.90;;;;;;4993157;28;20068;-63
2021/04/18 04:05:19;;;;;;;26.75;10.05;;;6.30;99.90;;;;;;4991952;28;20030;-63
2021/04/18 04:07:45;;;;;;;22.88;9.13;;;6.20;99.90;;;;;;4993101;28;20027;-63
2021/04/18 04:10:11;;;;;;;20.35;8.57;;;6.20;99.90;;;;;;4992908;28;20019;-63
2021/04/18 04:12:37;;;;;;;21.90;9.50;;;6.20;99.90;;;;;;4993093;28;20019;-64
2021/04/18 04:15:05;;;;;;;21.85;9.27;;;6.10;99.90;;;;;;4993224;28;20539;-63
2021/04/18 04:17:30;;;;;;;21.58;9.63;;;6.10;99.90;;;;;;4993263;28;20030;-61
2021/04/18 04:19:56;;;;;;;23.80;9.98;;;6.10;99.90;;;;;;4991741;28;20030;-62
2021/04/18 04:22:21;;;;;;;33.17;10.80;;;6.00;99.90;;;;;;4992106;28;20026;-62
2021/04/18 04:24:50;;;;;;;21.35;9.48;;;6.10;99.90;;;;;;4991839;28;20603;-61
2021/04/18 04:27:15;;;;;;;23.15;9.82;;;6.10;99.90;;;;;;4991825;28;20026;-63
2021/04/18 04:29:42;;;;;;;20.65;9.07;;;6.20;99.90;;;;;;4991662;28;20037;-63
2021/04/18 04:32:07;;;;;;;25.27;10.13;;;6.30;99.90;;;;;;4991522;28;20026;-63
2021/04/18 04:34:33;;;;;;;24.70;9.68;;;6.20;99.90;;;;;;4991824;28;20034;-63
2021/04/18 04:36:59;;;;;;;23.25;10.52;;;6.30;99.90;;;;;;4991833;28;20033;-63
2021/04/18 04:39:24;;;;;;;21.05;9.90;;;6.40;99.90;;;;;;4991578;28;20033;-64
2021/04/18 04:41:50;;;;;;;23.95;10.23;;;6.40;99.90;;;;;;4992633;28;20473;-65
2021/04/18 04:44:18;;;;;;;24.05;11.20;;;6.40;99.90;;;;;;4998294;28;20109;-65
2021/04/18 04:46:44;;;;;;;24.23;11.05;;;6.40;99.90;;;;;;4999382;28;20049;-63
2021/04/18 04:49:10;;;;;;;23.42;9.93;;;6.40;99.90;;;;;;4999153;28;20084;-63
2021/04/18 04:51:36;;;;;;;23.15;10.82;;;6.40;99.90;;;;;;4999300;28;20435;-60
2021/04/18 04:54:02;;;;;;;22.17;10.90;;;6.40;99.90;;;;;;4998002;28;20057;-61
2021/04/18 04:56:28;;;;;;;21.63;9.90;;;6.50;99.90;;;;;;4998080;28;20117;-62
2021/04/18 04:58:54;;;;;;;21.85;10.52;;;6.60;99.90;;;;;;4998051;28;20054;-63
2021/04/18 05:01:20;;;;;;;24.35;10.70;;;6.60;99.90;;;;;;4999333;28;20023;-61
2021/04/18 05:03:45;;;;;;;23.20;10.90;;;6.60;99.90;;;;;;4997738;28;20080;-61
2021/04/18 05:06:11;;;;;;;22.25;10.40;;;6.60;99.90;;;;;;4997865;28;20029;-63
2021/04/18 05:08:36;;;;;;;21.38;10.60;;;6.70;99.90;;;;;;4999607;28;20027;-58
2021/04/18 05:11:02;;;;;;;31.70;11.63;;;6.80;99.90;;;;;;4998521;28;20030;-62
2021/04/18 05:13:27;;;;;;;22.88;10.27;;;6.80;99.90;;;;;;4999082;28;20029;-63
2021/04/18 05:15:53;;;;;;;20.90;10.00;;;6.70;99.90;;;;;;4999101;28;20023;-66
2021/04/18 05:18:19;;;;;;;26.10;10.95;;;6.80;99.90;;;;;;4998139;28;20073;-61
2021/04/18 05:20:45;;;;;;;25.63;10.63;;;6.80;99.90;;;;;;4998003;28;20073;-64
2021/04/18 05:23:10;;;;;;;24.25;10.32;;;6.80;99.90;;;;;;4997612;28;20032;-62
2021/04/18 05:25:36;;;;;;;21.52;10.57;;;6.80;99.90;;;;;;4998843;28;20023;-62
2021/04/18 05:28:02;;;;;;;24.40;11.38;;;6.80;99.90;;;;;;4997649;28;20053;-62
2021/04/18 05:30:27;;;;;;;24.52;10.55;;;6.80;99.90;;;;;;4998533;28;20033;-63
2021/04/18 05:32:53;;;;;;;26.52;10.93;;;6.90;99.90;;;;;;4998652;28;20034;-61
2021/04/18 05:35:18;;;;;;;22.48;10.13;;;7.00;99.90;;;;;;4998616;28;20030;-63
2021/04/18 05:37:44;;;;;;;22.08;11.40;;;7.10;99.90;;;;;;4997273;28;20034;-64
2021/04/18 05:40:10;;;;;;;26.70;11.82;;;7.10;99.90;;;;;;4997010;28;20034;-64
2021/04/18 05:42:36;;;;;;;23.83;10.75;;;7.10;99.90;;;;;;4997256;28;20034;-63
2021/04/18 05:45:02;;;;;;;24.50;11.75;;;7.20;99.90;;;;;;4997308;28;20613;-64
2021/04/18 05:47:28;;;;;;;22.08;10.63;;;7.20;99.90;;;;;;4997243;28;20023;-64
2021/04/18 05:49:54;;;;;;;25.45;10.75;;;7.30;99.90;;;;;;4998424;28;20496;-62
2021/04/18 05:52:19;;;;;;;23.83;11.50;;;7.30;99.90;;;;;;4997334;28;20023;-64
2021/04/18 05:54:46;;;;;;;25.38;11.52;;;7.40;99.90;;;;;;4996646;28;20535;-63
2021/04/18 05:57:11;;;;;;;28.10;11.38;;;7.30;99.90;;;;;;4994005;28;20481;-64
2021/04/18 05:59:37;;;;;;;32.70;15.10;;;7.30;99.90;;;;;;4994574;28;20030;-64
2021/04/18 06:02:03;;;;;;;22.98;11.40;;;7.20;99.90;;;;;;4995766;28;20050;-64
2021/04/18 06:04:31;;;;;;;25.63;11.18;;;7.30;99.90;;;;;;4995500;28;20030;-63
2021/04/18 06:06:56;;;;;;;26.75;11.48;;;7.30;99.90;;;;;;4995415;28;20026;-64
2021/04/18 06:09:22;;;;;;;25.85;11.93;;;7.40;99.90;;;;;;4995137;28;20120;-63
2021/04/18 06:11:48;;;;;;;27.25;11.45;;;7.50;99.90;;;;;;4995562;28;20483;-64
2021/04/18 06:14:13;;;;;;;22.88;11.30;;;7.60;99.90;;;;;;4994163;28;20041;-63
2021/04/18 06:16:39;;;;;;;28.13;11.23;;;7.60;99.90;;;;;;4995233;28;20038;-63
2021/04/18 06:19:05;;;;;;;25.50;12.07;;;7.60;99.90;;;;;;4993651;28;20033;-63
2021/04/18 06:21:30;;;;;;;23.02;11.05;;;7.60;99.90;;;;;;4994092;28;20026;-62
2021/04/18 06:23:56;;;;;;;24.00;11.10;;;7.50;99.90;;;;;;4993939;28;20026;-64
2021/04/18 06:26:21;;;;;;;23.40;11.50;;;7.60;99.90;;;;;;4993831;28;20022;-64
2021/04/18 06:28:47;;;;;;;24.27;11.40;;;7.60;99.90;;;;;;4993873;28;20369;-63
2021/04/18 06:31:13;;;;;;;23.20;11.13;;;7.50;99.90;;;;;;4993980;28;20022;-64
2021/04/18 06:33:38;;;;;;;23.00;10.95;;;7.50;99.90;;;;;;5008669;23;20125;-62
2021/04/18 06:36:05;;;;;;;21.75;10.57;;;7.60;99.90;;;;;;4973695;28;20492;-64
2021/04/18 06:38:30;;;;;;;25.20;12.75;;;7.50;99.90;;;;;;4973709;28;20026;-63
2021/04/18 06:40:56;;;;;;;25.25;11.90;;;7.60;99.90;;;;;;4988449;28;20162;-61
2021/04/18 06:43:23;;;;;;;25.70;12.40;;;7.70;99.90;;;;;;4973581;28;20023;-62
2021/04/18 06:45:53;;;;;;;23.17;10.90;;;7.50;99.90;;;;;;4973098;28;20023;-63
2021/04/18 06:48:19;;;;;;;22.98;10.75;;;7.60;99.90;;;;;;4988045;28;20046;-63
2021/04/18 06:50:47;;;;;;;26.60;12.23;;;7.70;99.90;;;;;;4971513;28;20034;-62
2021/04/18 06:53:12;;;;;;;23.65;11.55;;;7.60;99.90;;;;;;4973457;28;20023;-63
2021/04/18 06:55:38;;;;;;;25.55;12.55;;;7.50;99.90;;;;;;4973358;28;20106;-63
2021/04/18 06:58:04;;;;;;;23.63;10.52;;;7.60;99.90;;;;;;4973251;28;20397;-59
2021/04/18 07:00:30;;;;;;;23.98;10.93;;;7.60;99.90;;;;;;4972034;28;20026;-61
2021/04/18 07:03:13;;;;;;;28.50;11.98;;;7.60;99.90;;;;;;4973100;28;20034;-61
2021/04/18 07:05:44;;;;;;;25.27;12.40;;;7.50;99.90;;;;;;4972669;28;20031;-63
2021/04/18 07:08:31;;;;;;;22.45;10.63;;;7.50;99.90;;;;;;4973343;28;20071;-61
2021/04/18 07:11:19;;;;;;;22.23;11.32;;;7.60;99.90;;;;;;4971152;28;20018;-62
2021/04/18 07:13:46;;;;;;;;;;;7.50;99.90;;;;;;4971882;28;20026;-62
2021/04/18 07:16:26;;;;;;;24.10;11.45;;;7.50;99.90;;;;;;4971954;28;19979;-64
2021/04/18 07:18:52;;;;;;;25.20;12.90;;;7.50;99.90;;;;;;4969239;28;20026;-63
2021/04/18 07:21:18;;;;;;;25.23;11.85;;;7.50;99.90;;;;;;4973094;28;20023;-62
2021/04/18 07:23:44;;;;;;;24.77;12.27;;;7.70;99.90;;;;;;4971452;28;20027;-64
2021/04/18 07:26:26;;;;;;;24.55;12.48;;;7.70;99.90;;;;;;4973008;28;20493;-62
2021/04/18 07:29:10;;;;;;;25.42;12.80;;;7.80;99.90;;;;;;4972543;28;20396;-62
2021/04/18 07:31:35;;;;;;;29.10;13.45;;;8.10;99.90;;;;;;4972413;28;20397;-62
2021/04/18 07:34:07;;;;;;;21.85;11.90;;;8.00;99.90;;;;;;4971304;28;20034;-62
2021/04/18 07:36:34;;;;;;;27.23;12.50;;;8.40;99.90;;;;;;4971734;28;20463;-63
2021/04/18 07:39:00;;;;;;;23.65;11.75;;;8.80;99.90;;;;;;4972124;28;20030;-64
2021/04/18 07:41:26;;;;;;;24.20;12.15;;;9.10;99.90;;;;;;4972158;28;20600;-63
2021/04/18 07:43:52;;;;;;;24.17;12.30;;;9.50;99.90;;;;;;4971390;28;20382;-63
2021/04/18 07:46:20;;;;;;;24.73;11.35;;;9.70;99.90;;;;;;4970216;28;20023;-62
2021/04/18 07:48:47;;;;;;;25.02;11.82;;;9.90;99.90;;;;;;4970693;28;20493;-63
2021/04/18 07:51:13;;;;;;;23.67;11.18;;;10.00;99.90;;;;;;4971891;28;20043;-63
2021/04/18 07:53:40;;;;;;;22.77;12.63;;;10.10;99.90;;;;;;4970936;28;20079;-64
2021/04/18 07:56:10;;;;;;;21.95;11.18;;;10.20;99.90;;;;;;4972478;28;20027;-62
2021/04/18 07:58:41;;;;;;;21.85;11.07;;;10.30;99.90;;;;;;4971600;28;20026;-62
2021/04/18 08:01:07;;;;;;;24.42;11.27;;;10.40;99.90;;;;;;4971612;28;20396;-62
2021/04/18 08:03:34;;;;;;;22.52;11.00;;;10.50;99.90;;;;;;4972001;28;20030;-64
2021/04/18 08:05:59;;;;;;;22.55;10.93;;;10.50;99.90;;;;;;4970756;28;20552;-65
2021/04/18 08:08:42;;;;;;;19.95;10.68;;;10.60;99.90;;;;;;4972128;28;20106;-62
2021/04/18 08:11:11;;;;;;;23.20;11.10;;;;;;;;;;4971955;28;20027;-64
2021/04/18 08:13:43;;;;;;;24.73;10.85;;;;;;;;;;4970337;28;20031;-61
2021/04/18 08:16:09;;;;;;;20.77;10.65;;;10.70;99.90;;;;;;4971445;28;20026;-65
2021/04/18 08:18:39;;;;;;;23.30;10.52;;;10.20;99.90;;;;;;4971312;28;20091;-66
2021/04/18 08:21:26;;;;;;;26.90;12.40;;;9.70;99.90;;;;;;4972522;28;20034;-66
2021/04/18 08:23:52;;;;;;;27.50;11.50;;;10.00;99.90;;;;;;4972687;28;20090;-66
2021/04/18 08:26:20;;;;;;;23.58;10.60;;;10.10;99.90;;;;;;4972459;28;20073;-63
2021/04/18 08:28:52;;;;;;;22.33;10.05;;;;;;;;;;4969413;28;20138;-64
2021/04/18 08:31:18;;;;;;;21.70;11.00;;;;;;;;;;4971260;28;20049;-62
2021/04/18 08:33:46;;;;;;;20.48;11.18;;;;;;;;;;4970982;28;20098;-62
2021/04/18 08:36:14;;;;;;;21.15;10.75;;;;;;;;;;4971667;28;20031;-62
2021/04/18 08:38:41;;;;;;;20.17;9.77;;;;;;;;;;4971013;28;20488;-62
2021/04/18 08:41:14;;;;;;;23.08;10.70;;;;;;;;;;5003080;28;20169;-62
2021/04/18 08:43:40;;;;;;;20.88;10.85;;;;;;;;;;4971502;28;20061;-63
2021/04/18 08:46:06;;;;;;;20.52;11.43;;;10.10;99.90;;;;;;4969861;28;20098;-61
2021/04/18 08:48:32;;;;;;;23.08;11.68;;;11.80;99.90;;;;;;4970832;28;20154;-62
2021/04/18 08:51:03;;;;;;;22.17;10.23;;;11.60;99.90;;;;;;4970829;28;20150;-63
2021/04/18 08:53:49;;;;;;;20.45;10.30;;;11.10;99.90;;;;;;4970828;28;20411;-63
2021/04/18 08:56:15;;;;;;;23.02;10.60;;;11.30;99.90;;;;;;4971638;28;20034;-63
2021/04/18 08:58:40;;;;;;;22.70;10.02;;;11.50;99.90;;;;;;4970188;28;20023;-62
2021/04/18 09:01:14;;;;;;;22.05;10.75;;;11.70;99.90;;;;;;4972901;28;20031;-63
2021/04/18 09:03:59;;;;;;;20.58;9.40;;;11.80;99.90;;;;;;4968150;28;20117;-63
2021/04/18 09:06:36;;;;;;;19.08;10.30;;;11.70;99.90;;;;;;4964481;28;20038;-63
2021/04/18 09:09:06;;;;;;;20.08;10.25;;;11.60;99.90;;;;;;4971442;28;20472;-63
2021/04/18 09:11:41;;;;;;;20.00;10.07;;;11.60;99.90;;;;;;4978142;28;20129;-63
2021/04/18 09:14:07;;;;;;;24.00;10.13;;;11.70;99.90;;;;;;4969166;28;20033;-62
2021/04/18 09:16:35;;;;;;;19.98;9.70;;;12.10;99.90;;;;;;4970144;28;20031;-62
2021/04/18 09:19:20;;;;;;;20.75;10.27;;;;;;;;;;4969465;28;20122;-63
2021/04/18 09:21:55;;;;;;;23.50;10.70;;;12.60;99.90;;;;;;4969743;28;20023;-62
2021/04/18 09:24:21;;;;;;;21.20;11.38;;;13.20;99.90;;;;;;4968641;28;20536;-62
2021/04/18 09:27:05;;;;;;;20.23;9.93;;;13.30;99.90;;;;;;4977631;28;20050;-63
2021/04/18 09:29:31;;;;;;;24.17;10.88;;;13.40;99.90;;;;;;4973863;28;20023;-62
2021/04/18 09:31:59;;;;;;;20.58;10.32;;;13.00;99.90;;;;;;4985960;28;20022;-63
2021/04/18 09:34:25;;;;;;;23.73;11.25;;;12.80;99.90;;;;;;4974273;28;20042;-63
2021/04/18 09:36:52;;;;;;;25.77;11.50;;;12.60;99.90;;;;;;4982979;28;20027;-62
2021/04/18 09:39:19;;;;;;;21.58;11.73;;;12.80;99.90;;;;;;4977401;28;20102;-62
2021/04/18 09:41:46;;;;;;;21.35;11.32;;;13.00;99.90;;;;;;5006448;28;20022;-62
2021/04/18 09:44:32;;;;;;;22.70;11.75;;;12.80;99.90;;;;;;4977443;28;20023;-63
2021/04/18 09:47:05;;;;;;;23.02;11.10;;;13.10;99.90;;;;;;4971583;28;20158;-61
2021/04/18 09:49:58;;;;;;;20.20;10.48;;;13.20;99.90;;;;;;4971632;28;20093;-62
2021/04/18 09:52:29;;;;;;;20.95;12.02;;;13.80;99.90;;;;;;4965146;28;20046;-61
2021/04/18 09:55:25;;;;;;;19.58;11.18;;;14.00;99.90;;;;;;4975457;28;20115;-61
2021/04/18 09:57:57;;;;;;;21.33;12.27;;;14.50;99.90;;;;;;4975132;28;20497;-62
2021/04/18 10:00:32;;;;;;;26.08;12.10;;;14.70;99.90;;;;;;4975304;28;20531;-59
2021/04/18 10:03:11;;;;;;;26.67;12.30;;;14.60;99.90;;;;;;4632660;28;9999692;-59
2021/04/18 10:05:44;;;;;;;25.02;13.77;;;14.70;99.90;;;;;;4971418;28;20034;-60
2021/04/18 10:08:27;;;;;;;22.20;13.32;;;14.50;99.90;;;;;;4975383;28;20038;-61
2021/04/18 10:10:55;;;;;;;21.83;13.40;;;14.70;99.90;;;;;;4997566;28;20358;-59
2021/04/18 10:13:51;;;;;;;20.65;13.80;;;15.00;99.90;;;;;;4968376;28;20462;-61
2021/04/18 10:16:21;;;;;;;21.70;12.57;;;15.30;99.90;;;;;;4972995;28;20034;-60
2021/04/18 10:19:14;;;;;;;23.15;13.68;;;14.40;99.90;;;;;;5008868;28;20105;-60
2021/04/18 10:21:42;;;;;;;21.67;13.18;;;14.10;99.90;;;;;;4978879;28;20057;-61
2021/04/18 10:24:53;;;;;;;23.42;14.07;;;13.90;99.90;;;;;;4994040;28;20033;-60
2021/04/18 10:27:27;;;;;;;22.92;13.60;;;14.20;99.90;;;;;;4991694;28;20037;-61
2021/04/18 10:29:54;;;;;;;21.83;13.32;;;13.90;99.90;;;;;;4992111;28;20113;-60
2021/04/18 10:32:22;;;;;;;21.65;13.32;;;14.00;99.90;;;;;;4992083;28;20443;-59
2021/04/18 10:34:52;;;;;;;23.30;14.30;;;14.10;99.90;;;;;;4992038;28;20030;-60
2021/04/18 10:37:18;;;;;;;22.90;14.73;;;14.00;99.90;;;;;;4993546;28;20041;-60
2021/04/18 10:39:44;;;;;;;21.35;14.13;;;14.30;99.90;;;;;;4993622;28;20034;-59
2021/04/18 10:42:10;;;;;;;21.17;14.50;;;14.20;99.90;;;;;;4992974;28;20530;-59
2021/04/18 10:44:37;;;;;;;22.90;14.63;;;14.20;99.90;;;;;;4993309;28;20037;-59
2021/04/18 10:47:05;;;;;;;22.05;14.18;;;14.10;99.90;;;;;;4982344;28;20030;-59
2021/04/18 10:49:32;;;;;;;21.02;13.27;;;14.50;99.90;;;;;;4973730;28;20023;-61
2021/04/18 10:51:58;;;;;;;22.08;13.52;;;14.20;99.90;;;;;;4973670;28;20027;-60
2021/04/18 10:54:24;;;;;;;25.83;14.55;;;14.50;99.90;;;;;;4973635;28;20466;-61
2021/04/18 10:56:51;;;;;;;21.92;14.68;;;13.80;99.90;;;;;;4973792;28;20053;-61
2021/04/18 10:59:19;;;;;;;24.10;13.95;;;14.20;99.90;;;;;;4972184;28;20042;-60
2021/04/18 11:01:45;;;;;;;28.73;15.30;;;14.20;99.90;;;;;;4973819;28;20070;-60
2021/04/18 11:04:11;;;;;;;23.83;14.38;;;13.70;99.90;;;;;;4973509;28;20050;-60
2021/04/18 11:06:37;;;;;;;23.50;14.15;;;14.30;99.90;;;;;;4973458;28;20031;-59
2021/04/18 11:09:05;;;;;;;24.90;14.32;;;14.80;99.90;;;;;;4973108;28;20094;-60
2021/04/18 11:11:31;;;;;;;21.85;13.85;;;15.50;99.90;;;;;;4971820;28;20074;-60
2021/04/18 11:13:56;;;;;;;21.77;13.50;;;15.00;99.90;;;;;;4973326;28;20089;-58
2021/04/18 11:16:22;;;;;;;23.08;13.60;;;15.70;99.90;;;;;;4972943;28;20511;-58
2021/04/18 11:18:49;;;;;;;22.85;15.23;;;16.20;99.90;;;;;;4973233;28;20038;-60
2021/04/18 11:21:15;;;;;;;21.40;13.55;;;16.60;99.90;;;;;;4973132;28;20366;-60
2021/04/18 11:23:40;;;;;;;25.70;16.17;;;18.20;99.90;;;;;;4972623;28;20038;-60
2021/04/18 11:26:08;;;;;;;22.70;15.32;;;19.30;98.90;;;;;;4972999;28;20030;-60
2021/04/18 11:28:34;;;;;;;23.88;15.18;;;;;;;;;;4972820;28;20027;-59
2021/04/18 11:31:01;;;;;;;23.15;15.95;;;20.20;97.60;;;;;;4972525;28;20078;-58
2021/04/18 11:33:27;;;;;;;23.23;14.73;;;21.30;90.40;;;;;;4955117;28;20042;-61
2021/04/18 11:35:53;;;;;;;22.75;15.80;;;;;;;;;;4973348;28;20027;-61
2021/04/18 11:38:20;;;;;;;27.35;16.42;;;19.80;90.90;;;;;;4972651;28;20027;-59
2021/04/18 11:40:46;;;;;;;22.48;15.77;;;;;;;;;;4972747;28;20398;-60
2021/04/18 11:43:12;;;;;;;22.40;15.20;;;;;;;;;;4971410;28;20042;-60
2021/04/18 11:45:38;;;;;;;21.67;15.00;;;;;;;;;;4972532;28;20031;-60
2021/04/18 11:48:04;;;;;;;22.33;14.48;;;;;;;;;;4971170;28;20410;-60
2021/04/18 11:50:30;;;;;;;21.92;14.73;;;;;;;;;;4972322;28;20031;-57
2021/04/18 11:52:58;;;;;;;25.02;16.40;;;18.80;91.20;;;;;;4972234;28;20078;-62
2021/04/18 11:55:26;;;;;;;25.05;16.80;;;20.50;90.10;;;;;;4972024;28;20053;-60
2021/04/18 11:57:51;;;;;;;21.40;16.70;;;20.80;88.90;;;;;;4972446;28;20038;-60
2021/04/18 12:00:20;;;;;;;22.15;15.40;;;22.00;87.40;;;;;;4970503;28;20189;-63
2021/04/18 12:02:46;;;;;;;21.45;15.23;;;;;;;;;;4971153;28;20492;-61
2021/04/18 12:05:13;;;;;;;24.17;16.35;;;;;;;;;;4972454;28;20034;-60
2021/04/18 12:07:40;;;;;;;18.73;15.25;;;22.20;85.30;;;;;;4972099;28;20034;-60
2021/04/18 12:10:11;;;;;;;20.15;15.40;;;20.50;83.20;;;;;;4971846;28;20027;-60
2021/04/18 12:12:39;;;;;;;21.20;14.73;;;19.40;83.80;;;;;;4969327;28;20070;-60
2021/04/18 12:15:05;;;;;;;21.00;14.90;;;19.30;84.80;;;;;;4622077;28;9999945;-60
2021/04/18 12:17:32;;;;;;;24.15;15.85;;;19.40;84.60;;;;;;4998327;28;20067;-60
2021/04/18 12:19:57;;;;;;;21.73;16.65;;;20.10;85.10;;;;;;4970739;28;20022;-61
2021/04/18 12:22:23;;;;;;;28.30;22.77;;;20.50;83.00;;;;;;4965401;28;20031;-59
2021/04/18 12:24:49;;;;;;;33.60;26.98;;;21.30;83.40;;;;;;4965562;28;20034;-59
2021/04/18 12:27:14;;;;;;;22.15;17.77;;;21.30;82.40;;;;;;4967775;28;20035;-60
2021/04/18 12:29:40;;;;;;;21.15;15.80;;;22.70;78.00;;;;;;4967017;28;20031;-61
2021/04/18 12:34:39;;;;;;;22.08;16.30;;;25.00;71.60;;;;;;4987280;23;20057;-64
2021/04/18 12:37:05;;;;;;;23.08;16.88;;;24.10;69.30;;;;;;4964901;28;20031;-64
2021/04/18 12:39:31;;;;;;;20.40;16.27;;;23.80;70.30;;;;;;4950439;28;20041;-61
2021/04/18 12:41:56;;;;;;;24.25;19.23;;;23.10;70.50;;;;;;4966751;28;20031;-62
2021/04/18 12:44:22;;;;;;;21.67;15.38;;;23.20;70.30;;;;;;4967810;28;20134;-62
2021/04/18 12:46:48;;;;;;;23.08;16.13;;;24.10;67.80;;;;;;4966526;28;20042;-65
2021/04/18 12:49:14;;;;;;;23.95;15.85;;;;;;;;;;4966056;28;20051;-61